Time;durP1;ratioP1;P1;durP2;ratioP2;P2;SDS_P1;SDS_P2;PMS_P1;PMS_P2;Temp;Humidity;BMP_temperature;BMP_pressure;BME280_temperature;BME280_humidity;BME280_pressure;Samples;Min_cycle;Max_cycle;Signal;HPM_P1;HPM_P2
2023/01/05 00:01:24;;;;;;;1.35;0.70;;;;;;;10.58;nan;100843.25;5008324;28;20128;-86
2023/01/05 00:03:49;;;;;;;3.17;1.20;;;;;;;10.63;nan;100849.78;5025321;28;20037;-86
2023/01/05 00:06:18;;;;;;;1.65;0.90;;;;;;;10.66;nan;100838.06;5000525;28;20095;-86
2023/01/05 00:08:45;;;;;;;1.58;0.90;;;;;;;10.68;nan;100835.28;5008250;28;20442;-85
2023/01/05 00:22:30;;;;;;;0.93;0.73;;;;;;;10.76;nan;100819.53;5025012;28;20048;-87
2023/01/05 00:25:19;;;;;;;1.35;0.95;;;;;;;10.77;nan;100819.38;5006117;28;20030;-87
2023/01/05 00:27:50;;;;;;;0.85;0.70;;;;;;;10.79;nan;100820.06;5003002;28;20042;-89
2023/01/05 00:30:18;;;;;;;1.40;0.90;;;;;;;10.79;nan;100817.41;5003651;28;20029;-87
2023/01/05 00:32:44;;;;;;;0.93;0.80;;;;;;;10.76;nan;100809.78;5009500;28;20033;-88
2023/01/05 00:35:11;;;;;;;1.50;0.70;;;;;;;10.78;nan;100809.63;5010303;28;20056;-88
2023/01/05 00:37:37;;;;;;;1.55;0.90;;;;;;;10.74;nan;100817.00;5009757;28;20079;-87
2023/01/05 00:40:04;;;;;;;1.88;1.00;;;;;;;10.73;nan;100807.44;5027047;28;20041;-87
2023/01/05 00:42:30;;;;;;;1.77;0.90;;;;;;;10.66;nan;100806.34;5028087;28;20041;-87
2023/01/05 00:44:55;;;;;;;2.55;0.90;;;;;;;10.65;nan;100802.00;5010173;28;20115;-88
2023/01/05 00:47:20;;;;;;;1.85;1.00;;;;;;;10.59;nan;100805.25;5008751;28;20046;-87
2023/01/05 00:49:46;;;;;;;2.47;1.02;;;;;;;10.59;nan;100802.63;5010742;28;20033;-87
2023/01/05 00:52:11;;;;;;;2.30;1.17;;;;;;;10.54;nan;100816.25;5009936;28;20487;-87
2023/01/05 00:54:36;;;;;;;1.45;1.00;;;;;;;10.53;nan;100819.03;5009200;28;20037;-87
2023/01/05 00:57:02;;;;;;;1.60;0.90;;;;;;;10.51;nan;100813.06;5023470;28;20506;-88
2023/01/05 00:59:27;;;;;;;2.03;0.90;;;;;;;10.54;nan;100815.44;5009669;28;20025;-86
2023/01/05 01:01:53;;;;;;;1.30;0.95;;;;;;;10.52;nan;100815.56;5025451;28;20116;-87
2023/01/05 01:04:19;;;;;;;1.52;1.05;;;;;;;10.52;nan;100809.47;5009939;28;20669;-85
2023/01/05 01:06:45;;;;;;;2.10;0.98;;;;;;;10.51;nan;100798.06;5031196;28;20510;-85
2023/01/05 01:09:11;;;;;;;1.98;0.90;;;;;;;10.51;nan;100806.00;5029774;28;20076;-85
2023/01/05 01:11:37;;;;;;;1.58;0.98;;;;;;;10.56;nan;100794.97;5016660;28;20112;-85
2023/01/05 01:14:09;;;;;;;1.40;0.80;;;;;;;10.58;nan;100796.50;5031312;28;20045;-85
2023/01/05 01:16:34;;;;;;;1.23;0.80;;;;;;;10.56;nan;100789.69;5013956;28;20411;-85
2023/01/05 01:19:00;;;;;;;1.20;0.82;;;;;;;10.59;nan;100797.31;5005545;28;20044;-85
2023/01/05 01:21:26;;;;;;;0.73;0.60;;;;;;;10.58;nan;100785.06;5030652;28;20048;-85
2023/01/05 01:23:52;;;;;;;1.70;0.90;;;;;;;10.60;nan;100793.69;5014278;28;20033;-86
2023/01/05 01:26:17;;;;;;;1.83;0.80;;;;;;;10.62;nan;100791.75;5011708;28;20052;-86
2023/01/05 01:28:45;;;;;;;0.85;0.60;;;;;;;10.65;nan;100796.72;5014212;28;20061;-85
2023/01/05 01:31:11;;;;;;;0.60;0.60;;;;;;;10.68;nan;100792.94;5028197;28;20034;-86
2023/01/05 01:33:38;;;;;;;0.90;0.70;;;;;;;10.71;nan;100796.16;5030534;28;20107;-85
2023/01/05 01:36:04;;;;;;;1.08;0.77;;;;;;;10.76;nan;100799.19;5013192;28;20482;-85
2023/01/05 01:38:30;;;;;;;1.85;0.70;;;;;;;10.76;nan;100796.53;5031466;28;20136;-85
2023/01/05 01:40:55;;;;;;;1.00;0.70;;;;;;;10.81;nan;100796.94;5013894;28;20034;-85
2023/01/05 01:43:44;;;;;;;2.25;0.70;;;;;;;10.81;nan;100796.09;5014233;28;20087;-87
2023/01/05 01:46:11;;;;;;;1.23;0.70;;;;;;;10.86;nan;100801.78;5011359;28;20045;-87
2023/01/05 01:48:39;;;;;;;1.35;0.77;;;;;;;10.88;nan;100791.91;5026988;28;20037;-87
2023/01/05 01:51:09;;;;;;;1.20;0.70;;;;;;;10.90;nan;100789.94;5012830;28;20095;-87
2023/01/05 01:53:39;;;;;;;1.07;0.80;;;;;;;10.95;nan;100786.84;5007522;28;20092;-87
2023/01/05 01:56:08;;;;;;;0.95;0.60;;;;;;;10.99;nan;100785.59;5006474;28;20192;-86
2023/01/05 01:58:33;;;;;;;0.95;0.70;;;;;;;10.99;nan;100786.41;5022594;28;20046;-87
2023/01/05 02:01:02;;;;;;;;;;;;;;;10.99;nan;100786.41;5009196;28;20041;-88
2023/01/05 02:03:28;;;;;;;1.00;0.75;;;;;;;10.98;nan;100792.66;5020319;28;20016;-87
2023/01/05 02:05:54;;;;;;;0.60;0.60;;;;;;;11.00;nan;100787.25;5010322;28;20037;-86
2023/01/05 02:08:24;;;;;;;1.17;0.60;;;;;;;11.03;nan;100781.66;5006136;28;20060;-87
2023/01/05 02:11:13;;;;;;;1.00;0.57;;;;;;;11.03;nan;100779.81;5012307;28;20529;-86
2023/01/05 02:14:15;;;;;;;1.38;0.68;;;;;;;11.01;nan;100763.28;5024155;28;20041;-87
2023/01/05 02:17:08;;;;;;;0.70;0.57;;;;;;;10.98;nan;100765.38;5025448;28;20068;-87
2023/01/05 02:19:52;;;;;;;0.70;0.60;;;;;;;10.96;nan;100762.88;5014727;28;21012;-86
2023/01/05 02:22:26;;;;;;;0.75;0.60;;;;;;;10.98;nan;100768.84;5010987;28;20049;-86
2023/01/05 02:25:01;;;;;;;0.95;0.60;;;;;;;10.98;nan;100770.66;5029710;28;20042;-87
2023/01/05 02:27:45;;;;;;;0.80;0.55;;;;;;;10.91;nan;100764.31;5029443;28;20510;-87
2023/01/05 02:30:16;;;;;;;1.30;0.70;;;;;;;10.92;nan;100755.41;5032921;28;20285;-86
2023/01/05 02:32:50;;;;;;;1.88;0.73;;;;;;;10.88;nan;100754.84;5025735;28;20092;-86
2023/01/05 02:35:29;;;;;;;3.08;0.80;;;;;;;10.84;nan;100754.34;5009038;28;20034;-86
2023/01/05 02:38:17;;;;;;;2.88;0.80;;;;;;;10.81;nan;100753.78;5030539;28;20041;-86
2023/01/05 02:40:49;;;;;;;1.00;0.70;;;;;;;10.77;nan;100755.06;5011926;28;20056;-87
2023/01/05 02:43:19;;;;;;;0.98;0.73;;;;;;;10.73;nan;100741.31;5016556;28;20021;-87
2023/01/05 02:45:45;;;;;;;1.60;0.60;;;;;;;10.73;nan;100738.66;5031611;28;20042;-87
2023/01/05 02:48:10;;;;;;;1.10;0.75;;;;;;;10.74;nan;100747.41;5022708;28;20550;-86
2023/01/05 02:50:49;;;;;;;1.23;0.65;;;;;;;10.75;nan;100747.28;5011112;28;20120;-87
2023/01/05 02:53:24;;;;;;;1.05;0.60;;;;;;;10.73;nan;100748.41;5026654;28;20041;-86
2023/01/05 02:55:55;;;;;;;1.65;0.70;;;;;;;10.74;nan;100748.25;5028316;28;20037;-87
2023/01/05 02:58:30;;;;;;;;;;;;;;;10.78;nan;100739.03;5008718;28;20046;-88
2023/01/05 03:01:07;;;;;;;0.90;0.60;;;;;;;10.79;nan;100747.81;5011881;28;19921;-87
2023/01/05 03:03:42;;;;;;;0.80;0.63;;;;;;;10.75;nan;100742.00;5005449;28;20037;-87
2023/01/05 03:06:24;;;;;;;1.05;0.70;;;;;;;10.70;nan;100743.41;5028546;28;20033;-87
2023/01/05 03:08:56;;;;;;;1.77;0.63;;;;;;;10.67;nan;100749.00;5008676;28;20213;-86
2023/01/05 03:14:25;;;;;;;1.38;0.60;;;;;;;10.68;nan;100770.00;5024566;28;20087;-86
2023/01/05 03:16:55;;;;;;;1.15;0.60;;;;;;;10.70;nan;100768.06;5007958;28;20030;-86
2023/01/05 03:19:38;;;;;;;1.48;0.60;;;;;;;10.67;nan;100763.03;5011883;28;20131;-87
2023/01/05 03:37:03;;;;;;;1.55;0.80;;;;;;;10.54;nan;100826.03;5042842;28;20087;-87
2023/01/05 03:39:30;;;;;;;0.95;0.70;;;;;;;10.54;nan;100826.84;5040929;28;20041;-87
2023/01/05 03:41:56;;;;;;;1.08;0.50;;;;;;;10.59;nan;100824.59;5045887;28;20119;-86
2023/01/05 03:44:22;;;;;;;0.88;0.43;;;;;;;10.62;nan;100834.03;5035003;28;20130;-86
2023/01/05 03:46:47;;;;;;;1.58;0.63;;;;;;;10.63;nan;100827.81;5034468;28;20286;-86
2023/01/05 03:49:12;;;;;;;0.70;0.60;;;;;;;10.60;nan;100834.19;5012605;28;20038;-86
2023/01/05 03:51:38;;;;;;;0.85;0.40;;;;;;;10.57;nan;100833.66;5012507;28;20037;-86
2023/01/05 03:54:03;;;;;;;0.45;0.43;;;;;;;10.58;nan;100837.94;5007612;28;20466;-86
2023/01/05 03:56:29;;;;;;;0.55;0.45;;;;;;;10.56;nan;100834.66;5010331;28;20057;-86
2023/01/05 03:58:54;;;;;;;0.63;0.40;;;;;;;10.52;nan;100833.25;5011418;28;20037;-86
2023/01/05 04:01:19;;;;;;;1.70;0.68;;;;;;;10.52;nan;100831.44;5027864;28;20037;-86
2023/01/05 04:03:44;;;;;;;0.95;0.43;;;;;;;10.55;nan;100835.59;5005767;28;20029;-85
2023/01/05 04:06:10;;;;;;;1.33;0.47;;;;;;;10.60;nan;100834.19;5010755;28;20041;-86
2023/01/05 04:08:35;;;;;;;0.30;0.30;;;;;;;10.61;nan;100835.03;5003051;28;20064;-86
2023/01/05 04:11:16;;;;;;;2.22;0.80;;;;;;;10.59;nan;100829.88;5011017;28;20033;-85
2023/01/05 04:13:41;;;;;;;1.20;0.70;;;;;;;10.66;nan;100838.06;5024811;28;20057;-86
2023/01/05 04:16:07;;;;;;;2.75;0.70;;;;;;;10.64;nan;100863.84;5006954;28;20040;-86
2023/01/05 04:18:32;;;;;;;6.60;1.45;;;;;;;10.73;nan;100865.63;5010345;28;20046;-85
2023/01/05 04:20:57;;;;;;;8.63;1.73;;;;;;;10.76;nan;100867.13;5008507;28;20037;-85
2023/01/05 04:23:23;;;;;;;5.53;1.42;;;;;;;10.82;nan;100870.03;5008752;28;20436;-85
2023/01/05 04:25:48;;;;;;;8.15;1.38;;;;;;;10.83;nan;100874.34;5024460;28;20084;-86
2023/01/05 04:28:13;;;;;;;4.85;1.42;;;;;;;10.84;nan;100883.97;5025514;28;20133;-85
2023/01/05 04:30:38;;;;;;;5.13;1.83;;;;;;;10.86;nan;100875.03;5009929;28;20725;-85
2023/01/05 04:33:04;;;;;;;7.13;1.35;;;;;;;10.87;nan;100881.97;5029150;28;20040;-86
2023/01/05 04:35:29;;;;;;;7.80;1.45;;;;;;;10.85;nan;100882.16;5010521;28;20042;-86
2023/01/05 04:37:54;;;;;;;5.70;1.58;;;;;;;10.84;nan;100883.97;5029532;28;20030;-85
2023/01/05 04:40:20;;;;;;;6.70;1.77;;;;;;;10.73;nan;100886.78;5009450;28;20140;-85
2023/01/05 04:42:46;;;;;;;8.15;1.67;;;;;;;10.74;nan;100892.91;5011699;28;20030;-85
2023/01/05 04:45:11;;;;;;;7.57;1.60;;;;;;;10.64;nan;100892.94;5012441;28;20514;-85
2023/01/05 04:47:37;;;;;;;8.23;1.90;;;;;;;10.56;nan;100895.47;5023812;28;20033;-85
2023/01/05 04:50:03;;;;;;;6.07;1.75;;;;;;;10.49;nan;100892.53;5030217;28;20034;-85
2023/01/05 04:52:28;;;;;;;8.25;1.95;;;;;;;10.49;nan;100897.00;5023039;28;20034;-85
2023/01/05 04:54:53;;;;;;;6.78;1.52;;;;;;;10.51;nan;100908.25;5010884;28;20032;-85
2023/01/05 04:57:18;;;;;;;6.63;1.30;;;;;;;10.50;nan;100909.25;5011766;28;20120;-85
2023/01/05 04:59:44;;;;;;;9.65;1.80;;;;;;;10.55;nan;100904.34;5029509;28;20525;-85
2023/01/05 05:02:10;;;;;;;9.45;1.98;;;;;;;10.49;nan;100911.06;5010910;28;20030;-85
2023/01/05 05:04:35;;;;;;;7.82;2.08;;;;;;;10.53;nan;100908.94;5030779;28;20026;-85
2023/01/05 05:07:01;;;;;;;6.63;2.00;;;;;;;10.52;nan;100915.22;5012662;28;20041;-85
2023/01/05 05:09:26;;;;;;;8.77;2.10;;;;;;;10.50;nan;100925.94;5012779;28;20450;-85
2023/01/05 05:11:51;;;;;;;7.40;1.80;;;;;;;10.54;nan;100942.38;5012871;28;20442;-84
2023/01/05 05:14:17;;;;;;;9.57;2.22;;;;;;;10.55;nan;100946.66;5010306;28;20033;-85
2023/01/05 05:16:42;;;;;;;6.70;1.98;;;;;;;10.60;nan;100947.91;5030248;28;20112;-85
2023/01/05 05:19:09;;;;;;;10.43;1.70;;;;;;;10.60;nan;100945.25;5012728;28;20088;-85
2023/01/05 05:21:34;;;;;;;8.07;1.92;;;;;;;10.61;nan;100946.94;5013550;28;20120;-85
2023/01/05 05:23:59;;;;;;;9.13;2.10;;;;;;;10.60;nan;100947.91;5012312;28;20136;-85
2023/01/05 05:26:25;;;;;;;8.27;1.73;;;;;;;10.62;nan;100953.06;5007310;28;20153;-85
2023/01/05 05:28:50;;;;;;;8.35;1.95;;;;;;;10.63;nan;100958.22;5010992;28;20064;-85
2023/01/05 05:31:15;;;;;;;10.52;2.00;;;;;;;10.60;nan;100970.88;5005130;28;20064;-84
2023/01/05 05:33:41;;;;;;;6.60;1.73;;;;;;;10.62;nan;100976.84;5028032;28;20045;-84
2023/01/05 05:36:07;;;;;;;5.55;1.83;;;;;;;10.60;nan;100979.63;5001421;28;20466;-86
2023/01/05 05:38:32;;;;;;;8.48;1.90;;;;;;;10.61;nan;100975.19;5028816;28;20494;-85
2023/01/05 05:40:57;;;;;;;6.65;1.73;;;;;;;10.59;nan;100964.75;5009974;28;20610;-85
2023/01/05 05:43:22;;;;;;;8.68;2.00;;;;;;;10.56;nan;100983.56;5024225;28;20038;-85
2023/01/05 05:45:48;;;;;;;7.55;1.85;;;;;;;10.59;nan;100987.72;5029453;28;20568;-85
2023/01/05 05:48:13;;;;;;;7.78;1.70;;;;;;;10.61;nan;100981.31;5011035;28;20580;-85
2023/01/05 05:50:38;;;;;;;9.05;1.90;;;;;;;10.60;nan;100999.97;5012256;28;20033;-84
2023/01/05 05:53:04;;;;;;;9.35;2.00;;;;;;;10.56;nan;101001.22;5012394;28;20053;-85
2023/01/05 05:55:29;;;;;;;10.00;2.13;;;;;;;10.56;nan;100998.59;5009987;28;20060;-84
2023/01/05 05:57:54;;;;;;;6.07;2.10;;;;;;;10.56;nan;100998.59;5031237;28;20033;-84
2023/01/05 06:00:19;;;;;;;11.30;2.33;;;;;;;10.52;nan;100994.53;5012273;28;20037;-84
2023/01/05 06:02:45;;;;;;;9.88;1.95;;;;;;;10.53;nan;100998.84;5028599;28;20511;-85
2023/01/05 06:05:10;;;;;;;9.50;2.13;;;;;;;10.51;nan;100992.84;5012979;28;20044;-85
2023/01/05 06:07:35;;;;;;;9.70;1.70;;;;;;;10.52;nan;101003.31;5022230;28;20038;-85
2023/01/05 06:10:01;;;;;;;6.28;1.70;;;;;;;10.53;nan;100996.19;5013305;28;20044;-85
2023/01/05 06:12:26;;;;;;;5.13;1.58;;;;;;;10.51;nan;100990.22;5026333;28;20041;-85
2023/01/05 06:14:51;;;;;;;7.63;2.03;;;;;;;10.47;nan;100996.78;5012014;28;20029;-85
2023/01/05 06:17:16;;;;;;;8.32;1.95;;;;;;;10.48;nan;101001.06;5030004;28;20551;-85
2023/01/05 06:19:42;;;;;;;8.77;2.10;;;;;;;10.43;nan;101004.13;5010821;28;20132;-85
2023/01/05 06:22:07;;;;;;;13.05;2.35;;;;;;;10.49;nan;100998.31;5011179;28;20037;-85
2023/01/05 06:24:32;;;;;;;9.25;2.20;;;;;;;10.51;nan;101006.09;5007807;28;20522;-84
2023/01/05 06:26:58;;;;;;;9.20;2.10;;;;;;;10.48;nan;101006.38;5011434;28;20042;-85
2023/01/05 06:29:23;;;;;;;12.38;2.22;;;;;;;10.51;nan;101004.28;5028756;28;20047;-85
2023/01/05 06:31:48;;;;;;;5.93;1.73;;;;;;;10.55;nan;100999.53;5027550;28;20353;-84
2023/01/05 06:34:14;;;;;;;7.95;1.80;;;;;;;10.54;nan;100995.25;5018815;28;20037;-86
2023/01/05 06:36:39;;;;;;;8.90;2.38;;;;;;;10.51;nan;100999.00;5025831;28;20384;-86
2023/01/05 06:39:04;;;;;;;8.68;2.17;;;;;;;10.47;nan;101004.72;5009098;28;20062;-86
2023/01/05 06:41:29;;;;;;;6.15;1.73;;;;;;;10.43;nan;101017.34;5011220;28;20057;-86
2023/01/05 06:43:55;;;;;;;10.25;1.95;;;;;;;10.39;nan;101008.03;5005166;28;20041;-86
2023/01/05 06:46:20;;;;;;;9.38;2.13;;;;;;;10.35;nan;101007.47;5017728;28;20040;-86
2023/01/05 06:48:45;;;;;;;9.88;2.13;;;;;;;10.38;nan;101006.38;5022784;28;20119;-86
2023/01/05 06:51:10;;;;;;;6.32;2.00;;;;;;;10.37;nan;101005.53;5009922;28;20042;-86
2023/01/05 06:53:36;;;;;;;10.02;2.13;;;;;;;10.39;nan;101015.94;5010091;28;20049;-86
2023/01/05 06:56:01;;;;;;;10.88;2.10;;;;;;;10.39;nan;101008.88;5015178;28;20618;-86
2023/01/05 06:58:26;;;;;;;9.43;2.35;;;;;;;10.39;nan;101002.75;5027247;28;20044;-86
2023/01/05 07:00:55;;;;;;;11.02;2.35;;;;;;;10.40;nan;101004.44;5010839;28;20740;-86
2023/01/05 07:03:22;;;;;;;10.52;2.00;;;;;;;10.38;nan;101017.78;5010094;28;20063;-86
2023/01/05 07:05:47;;;;;;;7.18;1.70;;;;;;;10.34;nan;101011.09;5028960;28;20122;-86
2023/01/05 07:08:13;;;;;;;10.80;2.88;;;;;;;10.36;nan;101018.88;5008573;28;20119;-85
2023/01/05 07:10:38;;;;;;;8.50;1.70;;;;;;;10.35;nan;101018.06;5014817;28;20060;-86
2023/01/05 07:13:03;;;;;;;6.22;1.40;;;;;;;10.33;nan;101019.16;5028644;28;20572;-86
2023/01/05 07:15:28;;;;;;;7.10;1.98;;;;;;;10.34;nan;101023.47;5013077;28;20043;-85
2023/01/05 07:17:54;;;;;;;7.78;1.92;;;;;;;10.33;nan;101021.81;5035615;28;20068;-86
2023/01/05 07:20:19;;;;;;;7.55;1.85;;;;;;;10.34;nan;101026.13;5031138;28;20044;-86
2023/01/05 07:22:44;;;;;;;10.90;2.13;;;;;;;10.32;nan;101026.28;5014338;28;20068;-86
2023/01/05 07:25:10;;;;;;;7.18;1.98;;;;;;;10.31;nan;101035.16;5006871;28;20062;-86
2023/01/05 07:27:35;;;;;;;8.35;1.80;;;;;;;10.29;nan;101039.75;5012460;28;20623;-86
2023/01/05 07:30:00;;;;;;;9.50;2.25;;;;;;;10.32;nan;101039.50;5011532;28;20044;-86
2023/01/05 07:32:26;;;;;;;6.15;2.00;;;;;;;10.32;nan;101042.13;5028355;28;20068;-86
2023/01/05 07:34:51;;;;;;;8.07;1.52;;;;;;;10.32;nan;101039.50;5005698;28;20037;-86
2023/01/05 07:37:16;;;;;;;6.63;1.75;;;;;;;10.32;nan;101044.78;5027758;28;20036;-86
2023/01/05 07:39:42;;;;;;;9.60;2.30;;;;;;;10.29;nan;101049.47;5028139;28;20429;-85
2023/01/05 07:42:07;;;;;;;7.25;1.63;;;;;;;10.28;nan;101053.09;5008148;28;20042;-86
2023/01/05 07:44:32;;;;;;;6.55;2.17;;;;;;;10.30;nan;101053.81;5009492;28;20044;-86
2023/01/05 07:46:58;;;;;;;6.75;1.58;;;;;;;10.31;nan;101044.91;5028229;28;20088;-85
2023/01/05 07:49:23;;;;;;;7.75;1.90;;;;;;;10.32;nan;101052.72;5022989;28;20065;-86
2023/01/05 07:51:48;;;;;;;5.88;1.90;;;;;;;10.28;nan;101059.22;5009409;28;20044;-86
2023/01/05 07:54:14;;;;;;;9.32;2.40;;;;;;;10.26;nan;101066.44;5009805;28;20034;-86
2023/01/05 07:56:39;;;;;;;11.30;2.00;;;;;;;10.28;nan;101061.88;5006947;28;20040;-86
2023/01/05 07:59:05;;;;;;;9.18;1.70;;;;;;;10.28;nan;101068.94;5026193;28;20029;-87
2023/01/05 08:01:30;;;;;;;4.40;1.67;;;;;;;10.32;nan;101063.28;5025648;28;20044;-86
2023/01/05 08:03:56;;;;;;;9.80;2.20;;;;;;;10.36;nan;101066.47;5001846;28;20046;-86
2023/01/05 08:06:21;;;;;;;8.52;1.85;;;;;;;10.34;nan;101077.16;5020817;28;20049;-86
2023/01/05 08:08:47;;;;;;;10.55;2.97;;;;;;;10.36;nan;101082.31;5009780;28;20048;-86
2023/01/05 08:11:15;;;;;;;6.05;1.92;;;;;;;10.37;nan;101084.03;5008823;28;20025;-85
2023/01/05 08:14:01;;;;;;;8.02;1.80;;;;;;;10.41;nan;101090.69;5006965;28;20217;-87
2023/01/05 08:16:27;;;;;;;5.72;1.52;;;;;;;10.43;nan;101090.56;5027132;28;20124;-86
2023/01/05 08:18:53;;;;;;;7.13;1.92;;;;;;;10.44;nan;101087.78;5009650;28;20037;-86
2023/01/05 08:21:19;;;;;;;6.97;1.67;;;;;;;10.51;nan;101098.63;5014879;28;20026;-86
2023/01/05 08:23:48;;;;;;;9.32;1.80;;;;;;;10.53;nan;101102.81;5025279;28;20124;-86
2023/01/05 08:26:16;;;;;;;9.52;2.15;;;;;;;10.55;nan;101103.50;5009484;28;20060;-86
2023/01/05 08:28:42;;;;;;;6.10;1.63;;;;;;;10.56;nan;101110.47;5009419;28;20565;-86
2023/01/05 08:31:11;;;;;;;6.75;1.80;;;;;;;10.60;nan;101106.56;5025560;28;20060;-85
2023/01/05 08:33:36;;;;;;;8.07;1.85;;;;;;;10.59;nan;101107.56;5009382;28;20103;-86
2023/01/05 08:36:07;;;;;;;9.73;2.22;;;;;;;10.67;nan;101101.56;5025020;28;20116;-86
2023/01/05 08:38:32;;;;;;;;;;;;;;;10.62;nan;101099.34;5026659;28;20396;-86
2023/01/05 08:41:01;;;;;;;10.30;2.50;;;;;;;10.68;nan;101111.19;5007585;28;20047;-86
2023/01/05 08:43:26;;;;;;;8.35;2.50;;;;;;;10.69;nan;101114.66;5024170;28;20314;-85
2023/01/05 08:45:51;;;;;;;8.30;2.90;;;;;;;10.76;nan;101124.56;5026850;28;20030;-86
2023/01/05 08:48:16;;;;;;;9.88;2.33;;;;;;;10.75;nan;101130.81;5025132;28;20041;-86
2023/01/05 08:50:42;;;;;;;9.23;2.40;;;;;;;10.72;nan;101139.00;5018348;28;20037;-86
2023/01/05 08:53:07;;;;;;;12.43;2.28;;;;;;;10.80;nan;101125.13;5009360;28;20038;-86
2023/01/05 08:55:33;;;;;;;10.32;2.15;;;;;;;10.79;nan;101126.06;5002595;28;20033;-86
2023/01/05 08:57:58;;;;;;;8.25;1.90;;;;;;;10.86;nan;101124.56;5024662;28;20044;-86
2023/01/05 09:00:23;;;;;;;11.68;2.25;;;;;;;10.86;nan;101129.00;5024977;28;20037;-86
2023/01/05 09:02:49;;;;;;;5.18;1.60;;;;;;;10.91;nan;101124.13;5024995;28;20037;-86
2023/01/05 09:05:14;;;;;;;9.57;2.17;;;;;;;10.91;nan;101132.06;5008610;28;20037;-85
2023/01/05 09:07:40;;;;;;;11.02;2.15;;;;;;;10.94;nan;101129.16;5008927;28;20044;-86
2023/01/05 09:10:06;;;;;;;10.02;2.17;;;;;;;10.98;nan;101133.19;5004003;28;20037;-86
2023/01/05 09:12:36;;;;;;;7.50;2.40;;;;;;;11.00;nan;101132.06;5006301;28;20048;-86
2023/01/05 09:15:02;;;;;;;5.88;2.22;;;;;;;10.98;nan;101147.25;5008573;28;20091;-86
2023/01/05 09:17:27;;;;;;;8.10;2.30;;;;;;;10.97;nan;101131.53;5014453;28;20276;-86
2023/01/05 09:19:53;;;;;;;9.57;2.70;;;;;;;10.97;nan;101145.59;5021750;28;20037;-85
2023/01/05 09:22:18;;;;;;;9.65;2.20;;;;;;;10.96;nan;101154.47;5026321;28;20056;-86
2023/01/05 09:24:43;;;;;;;8.93;2.40;;;;;;;11.00;nan;101150.59;5023433;28;20064;-86
2023/01/05 09:27:08;;;;;;;10.85;2.70;;;;;;;11.03;nan;101152.13;5011499;28;20103;-86
2023/01/05 09:29:34;;;;;;;7.38;2.17;;;;;;;11.05;nan;101156.31;5028753;28;20509;-86
2023/01/05 09:31:59;;;;;;;7.40;2.30;;;;;;;11.05;nan;101155.47;5028666;28;20029;-87
2023/01/05 09:34:25;;;;;;;9.95;2.13;;;;;;;11.03;nan;101158.25;5029110;28;20037;-86
2023/01/05 09:36:50;;;;;;;9.00;2.70;;;;;;;11.10;nan;101163.81;5012113;28;20112;-86
2023/01/05 09:39:15;;;;;;;7.95;1.90;;;;;;;11.16;nan;101146.56;5011534;28;20033;-86
2023/01/05 09:41:57;;;;;;;8.07;1.90;;;;;;;11.22;nan;101157.41;5012083;28;20080;-85
2023/01/05 09:44:40;;;;;;;6.75;1.95;;;;;;;11.29;nan;101160.34;5040215;28;20098;-86
2023/01/05 09:47:37;;;;;;;6.97;1.88;;;;;;;11.36;nan;101161.44;5026571;28;20080;-85
2023/01/05 09:50:06;;;;;;;4.53;1.42;;;;;;;11.37;nan;101157.84;5009763;28;20038;-86
2023/01/05 09:52:33;;;;;;;7.82;1.45;;;;;;;11.48;nan;101162.13;5028674;28;20428;-85
2023/01/05 09:54:58;;;;;;;5.20;1.65;;;;;;;11.55;nan;101165.03;5030996;28;20061;-85
2023/01/05 09:57:26;;;;;;;7.50;1.70;;;;;;;11.70;nan;101158.31;5009174;28;20037;-85
2023/01/05 09:59:57;;;;;;;6.20;1.48;;;;;;;11.75;nan;101160.53;5027954;28;20035;-85
2023/01/05 10:02:50;;;;;;;6.65;1.90;;;;;;;11.74;nan;101148.28;5028879;28;20057;-85
2023/01/05 10:05:16;;;;;;;7.20;1.90;;;;;;;11.72;nan;101156.34;5027233;28;20053;-85
2023/01/05 10:07:46;;;;;;;7.18;2.13;;;;;;;11.71;nan;101151.22;5027727;28;20037;-86
2023/01/05 10:10:30;;;;;;;8.00;2.00;;;;;;;11.69;nan;101152.19;5028461;28;20037;-85
2023/01/05 10:13:07;;;;;;;8.43;2.35;;;;;;;11.78;nan;101155.78;5010668;28;20064;-86
2023/01/05 10:15:46;;;;;;;7.32;2.35;;;;;;;11.75;nan;101164.03;5010923;28;20068;-85
2023/01/05 10:18:16;;;;;;;9.65;2.70;;;;;;;11.76;nan;101156.91;5029519;28;20396;-85
2023/01/05 10:21:24;;;;;;;8.73;2.38;;;;;;;11.69;nan;101164.59;5012698;28;20038;-86
2023/01/05 10:24:12;;;;;;;11.45;2.10;;;;;;;11.68;nan;101155.81;5013111;28;20034;-85
2023/01/05 10:26:52;;;;;;;8.07;2.00;;;;;;;11.73;nan;101157.19;5026877;28;20659;-85
2023/01/05 10:29:24;;;;;;;6.88;1.95;;;;;;;11.79;nan;101153.97;5029061;28;20037;-85
2023/01/05 10:32:06;;;;;;;6.60;1.60;;;;;;;11.83;nan;101152.72;5011105;28;20060;-85
2023/01/05 10:34:53;;;;;;;7.05;2.05;;;;;;;11.90;nan;101156.47;5028238;28;20053;-85
2023/01/05 10:37:41;;;;;;;11.20;2.38;;;;;;;11.96;nan;101149.75;5021935;28;20041;-85
2023/01/05 10:40:13;;;;;;;7.72;2.10;;;;;;;11.96;nan;101163.00;5008053;28;20029;-85
2023/01/05 10:42:42;;;;;;;10.43;2.20;;;;;;;11.99;nan;101160.91;5008248;28;20053;-85
2023/01/05 10:45:11;;;;;;;7.28;2.13;;;;;;;12.03;nan;101162.28;5009977;28;20136;-85
2023/01/05 10:47:38;;;;;;;9.23;2.38;;;;;;;12.11;nan;101162.41;5024325;28;20157;-85
2023/01/05 10:50:23;;;;;;;10.20;2.45;;;;;;;12.16;nan;101161.13;5011815;28;20086;-85
2023/01/05 10:52:49;;;;;;;8.05;2.20;;;;;;;12.17;nan;101162.78;5010054;28;20414;-85
2023/01/05 10:55:16;;;;;;;9.60;2.40;;;;;;;12.24;nan;101162.06;5010124;28;20033;-85
2023/01/05 10:57:41;;;;;;;10.07;2.00;;;;;;;12.26;nan;101164.56;5021440;28;20068;-85
2023/01/05 11:00:18;;;;;;;8.63;2.15;;;;;;;12.26;nan;101165.41;5028450;28;20424;-85
2023/01/05 11:02:59;;;;;;;11.07;2.65;;;;;;;12.32;nan;101161.31;5012870;28;20407;-85
2023/01/05 11:05:26;;;;;;;11.60;2.97;;;;;;;12.28;nan;101158.13;5013528;28;20507;-85
2023/01/05 11:07:54;;;;;;;10.45;2.25;;;;;;;12.41;nan;101163.06;5030114;28;20149;-86
2023/01/05 11:10:21;;;;;;;10.38;2.42;;;;;;;12.52;nan;101154.91;5025205;28;20037;-85
2023/01/05 11:12:53;;;;;;;11.90;2.72;;;;;;;12.60;nan;101162.13;5007625;28;20034;-85
2023/01/05 11:15:20;;;;;;;9.02;2.50;;;;;;;12.68;nan;101164.88;5011876;28;20041;-85
2023/01/05 11:17:46;;;;;;;9.35;2.50;;;;;;;12.63;nan;101161.84;5027956;28;20227;-85
2023/01/05 11:20:16;;;;;;;12.07;2.85;;;;;;;12.72;nan;101165.41;5024633;28;20057;-85
2023/01/05 11:22:47;;;;;;;10.32;2.45;;;;;;;12.68;nan;101159.59;5015431;28;20668;-85
2023/01/05 11:25:30;;;;;;;10.07;2.57;;;;;;;12.73;nan;101164.44;5005097;28;20053;-85
2023/01/05 11:28:14;;;;;;;10.25;2.58;;;;;;;12.71;nan;101169.06;5018494;28;20292;-85
2023/01/05 11:31:03;;;;;;;9.57;2.40;;;;;;;12.68;nan;101161.38;5024600;28;20037;-85
2023/01/05 11:33:33;;;;;;;10.27;2.83;;;;;;;12.67;nan;101171.16;5030423;28;20439;-85
2023/01/05 11:35:59;;;;;;;8.02;2.13;;;;;;;12.82;nan;101173.28;5018368;28;20049;-86
2023/01/05 11:38:30;;;;;;;7.10;2.30;;;;;;;12.87;nan;101171.03;5028421;28;20049;-85
2023/01/05 11:40:57;;;;;;;8.70;2.38;;;;;;;12.98;nan;101169.97;5015722;28;20061;-85
2023/01/05 11:43:28;;;;;;;11.50;2.97;;;;;;;12.98;nan;101165.50;5032173;28;20048;-85
2023/01/05 11:45:58;;;;;;;8.65;2.72;;;;;;;12.97;nan;101174.47;5014139;28;20029;-85
2023/01/05 11:48:28;;;;;;;9.35;2.60;;;;;;;12.93;nan;101178.41;5010404;28;20043;-86
2023/01/05 11:50:55;;;;;;;10.65;2.40;;;;;;;12.85;nan;101179.16;5011080;28;20320;-85
2023/01/05 11:53:33;;;;;;;9.80;2.45;;;;;;;12.85;nan;101173.84;5016108;28;20036;-85
2023/01/05 11:56:01;;;;;;;8.93;2.30;;;;;;;12.95;nan;101187.03;5012665;28;20510;-86
2023/01/05 11:58:31;;;;;;;10.07;2.35;;;;;;;12.94;nan;101180.91;5028628;28;20040;-86
2023/01/05 12:01:21;;;;;;;7.33;2.60;;;;;;;12.95;nan;101181.75;5043387;28;20046;-86
2023/01/05 12:04:14;;;;;;;6.88;2.15;;;;;;;13.02;nan;101185.47;5030486;28;20076;-86
2023/01/05 12:06:55;;;;;;;11.55;2.72;;;;;;;12.84;nan;101185.44;5030142;28;20132;-86
2023/01/05 12:09:24;;;;;;;11.55;2.67;;;;;;;12.51;nan;101186.88;5028730;28;20041;-86
2023/01/05 12:12:27;;;;;;;11.57;2.38;;;;;;;12.49;nan;101180.94;5025112;28;20100;-85
2023/01/05 12:15:26;;;;;;;11.15;2.60;;;;;;;12.60;nan;101188.66;5010864;28;20053;-86
2023/01/05 12:18:04;;;;;;;12.45;2.75;;;;;;;12.60;nan;101179.88;5030905;28;20121;-85
2023/01/05 12:20:55;;;;;;;8.00;2.42;;;;;;;12.65;nan;101178.44;5012017;28;20116;-85